sensor_id;sensor_type;location;lat;lon;timestamp;pressure;altitude;pressure_sealevel;temperature;humidity
22389;BME280;11362;48.102;11.620;2023-04-15T00:01:50;94132.28;;;21.67;31.04
22389;BME280;11362;48.102;11.620;2023-04-15T00:04:15;94127.53;;;21.67;31.08
22389;BME280;11362;48.102;11.620;2023-04-15T00:06:40;94127.97;;;21.66;30.92
22389;BME280;11362;48.102;11.620;2023-04-15T00:09:06;94118.09;;;21.65;31.12
22389;BME280;11362;48.102;11.620;2023-04-15T00:11:31;94118.47;;;21.67;30.91
22389;BME280;11362;48.102;11.620;2023-04-15T00:13:56;94116.50;;;21.67;31.14
22389;BME280;11362;48.102;11.620;2023-04-15T00:16:21;94121.22;;;21.67;31.13
22389;BME280;11362;48.102;11.620;2023-04-15T00:18:47;94119.25;;;21.67;31.18
22389;BME280;11362;48.102;11.620;2023-04-15T00:21:12;94122.44;;;21.66;31.09
22389;BME280;11362;48.102;11.620;2023-04-15T00:23:37;94111.38;;;21.66;30.92
22389;BME280;11362;48.102;11.620;2023-04-15T00:26:02;94116.91;;;21.66;30.94
22389;BME280;11362;48.102;11.620;2023-04-15T00:28:28;94111.38;;;21.66;30.84
22389;BME280;11362;48.102;11.620;2023-04-15T00:30:53;94101.88;;;21.67;31.09
22389;BME280;11362;48.102;11.620;2023-04-15T00:33:18;94105.88;;;21.66;30.88
22389;BME280;11362;48.102;11.620;2023-04-15T00:35:44;94103.09;;;21.66;30.99
22389;BME280;11362;48.102;11.620;2023-04-15T00:38:09;94094.81;;;21.66;31.00
22389;BME280;11362;48.102;11.620;2023-04-15T00:40:34;94099.53;;;21.65;31.15
22389;BME280;11362;48.102;11.620;2023-04-15T00:43:00;94096.00;;;21.65;31.14
22389;BME280;11362;48.102;11.620;2023-04-15T00:45:26;94086.16;;;21.64;31.11
22389;BME280;11362;48.102;11.620;2023-04-15T00:47:51;94091.69;;;21.64;31.31
22389;BME280;11362;48.102;11.620;2023-04-15T00:50:17;94080.63;;;21.64;30.98
22389;BME280;11362;48.102;11.620;2023-04-15T00:52:42;94085.34;;;21.63;31.02
22389;BME280;11362;48.102;11.620;2023-04-15T00:55:08;94097.22;;;21.64;31.04
22389;BME280;11362;48.102;11.620;2023-04-15T00:57:34;94090.88;;;21.63;30.95
22389;BME280;11362;48.102;11.620;2023-04-15T00:59:59;94092.44;;;21.64;31.08
22389;BME280;11362;48.102;11.620;2023-04-15T01:02:25;94092.44;;;21.64;31.10
22389;BME280;11362;48.102;11.620;2023-04-15T01:04:50;94102.72;;;21.64;31.04
22389;BME280;11362;48.102;11.620;2023-04-15T01:07:15;94101.94;;;21.63;31.02
22389;BME280;11362;48.102;11.620;2023-04-15T01:09:41;94099.19;;;21.63;30.97
22389;BME280;11362;48.102;11.620;2023-04-15T01:12:06;94094.44;;;21.64;30.90
22389;BME280;11362;48.102;11.620;2023-04-15T01:14:34;94101.53;;;21.65;30.96
22389;BME280;11362;48.102;11.620;2023-04-15T01:16:59;94103.50;;;21.64;31.09
22389;BME280;11362;48.102;11.620;2023-04-15T01:19:25;94097.22;;;21.64;30.94
22389;BME280;11362;48.102;11.620;2023-04-15T01:21:50;94093.66;;;21.63;31.00
22389;BME280;11362;48.102;11.620;2023-04-15T01:24:17;94096.00;;;21.65;31.04
22389;BME280;11362;48.102;11.620;2023-04-15T01:26:42;94099.97;;;21.64;31.39
22389;BME280;11362;48.102;11.620;2023-04-15T01:29:07;94097.22;;;21.64;31.04
22389;BME280;11362;48.102;11.620;2023-04-15T01:31:33;94095.19;;;21.64;31.01
22389;BME280;11362;48.102;11.620;2023-04-15T01:33:58;94092.88;;;21.63;31.15
22389;BME280;11362;48.102;11.620;2023-04-15T01:36:23;94095.66;;;21.63;30.98
22389;BME280;11362;48.102;11.620;2023-04-15T01:38:50;94102.72;;;21.64;30.90
22389;BME280;11362;48.102;11.620;2023-04-15T01:41:15;94105.50;;;21.64;31.08
22389;BME280;11362;48.102;11.620;2023-04-15T01:43:40;94103.94;;;21.63;31.13
22389;BME280;11362;48.102;11.620;2023-04-15T01:46:06;94101.19;;;21.63;30.99
22389;BME280;11362;48.102;11.620;2023-04-15T01:48:31;94102.72;;;21.64;31.10
22389;BME280;11362;48.102;11.620;2023-04-15T01:50:57;94090.88;;;21.63;30.87
22389;BME280;11362;48.102;11.620;2023-04-15T01:53:23;94096.41;;;21.63;31.00
22389;BME280;11362;48.102;11.620;2023-04-15T01:55:48;94098.41;;;21.63;31.07
22389;BME280;11362;48.102;11.620;2023-04-15T01:58:14;94092.88;;;21.63;31.30
22389;BME280;11362;48.102;11.620;2023-04-15T02:00:39;94101.19;;;21.63;31.17
22389;BME280;11362;48.102;11.620;2023-04-15T02:03:04;94096.41;;;21.63;31.22
22389;BME280;11362;48.102;11.620;2023-04-15T02:05:30;94099.97;;;21.64;30.89
22389;BME280;11362;48.102;11.620;2023-04-15T02:07:56;94093.31;;;21.61;30.99
22389;BME280;11362;48.102;11.620;2023-04-15T02:10:21;94106.72;;;21.63;31.00
22389;BME280;11362;48.102;11.620;2023-04-15T02:12:46;94097.63;;;21.62;31.21
22389;BME280;11362;48.102;11.620;2023-04-15T02:15:12;94102.41;;;21.62;30.87
22389;BME280;11362;48.102;11.620;2023-04-15T02:17:37;94099.63;;;21.62;31.06
22389;BME280;11362;48.102;11.620;2023-04-15T02:20:03;94101.19;;;21.63;31.06
22389;BME280;11362;48.102;11.620;2023-04-15T02:22:28;94095.28;;;21.61;30.92
22389;BME280;11362;48.102;11.620;2023-04-15T02:24:54;94098.84;;;21.61;31.17
22389;BME280;11362;48.102;11.620;2023-04-15T02:27:19;94097.28;;;21.60;31.05
22389;BME280;11362;48.102;11.620;2023-04-15T02:29:44;94098.41;;;21.63;31.05
22389;BME280;11362;48.102;11.620;2023-04-15T02:32:13;94095.66;;;21.63;31.15
22389;BME280;11362;48.102;11.620;2023-04-15T02:34:39;94095.66;;;21.63;31.04
22389;BME280;11362;48.102;11.620;2023-04-15T02:37:04;94090.13;;;21.63;30.96
22389;BME280;11362;48.102;11.620;2023-04-15T02:39:29;94091.34;;;21.62;31.12
22389;BME280;11362;48.102;11.620;2023-04-15T02:41:55;94092.53;;;21.61;31.05
22389;BME280;11362;48.102;11.620;2023-04-15T02:44:20;94088.56;;;21.62;31.03
22389;BME280;11362;48.102;11.620;2023-04-15T02:46:45;94081.94;;;21.59;31.16
22389;BME280;11362;48.102;11.620;2023-04-15T02:49:10;94083.47;;;21.60;31.07
22389;BME280;11362;48.102;11.620;2023-04-15T02:51:36;94075.19;;;21.60;31.12
22389;BME280;11362;48.102;11.620;2023-04-15T02:54:01;94078.72;;;21.61;31.14
22389;BME280;11362;48.102;11.620;2023-04-15T02:56:26;94080.72;;;21.60;31.14
22389;BME280;11362;48.102;11.620;2023-04-15T02:58:52;94086.25;;;21.60;31.00
22389;BME280;11362;48.102;11.620;2023-04-15T03:01:17;94084.69;;;21.59;31.21
22389;BME280;11362;48.102;11.620;2023-04-15T03:03:42;94081.47;;;21.61;31.20
22389;BME280;11362;48.102;11.620;2023-04-15T03:06:07;94083.91;;;21.59;31.03
22389;BME280;11362;48.102;11.620;2023-04-15T03:08:33;94085.44;;;21.60;30.93
22389;BME280;11362;48.102;11.620;2023-04-15T03:10:58;94084.69;;;21.59;31.07
22389;BME280;11362;48.102;11.620;2023-04-15T03:13:23;94090.97;;;21.60;31.04
22389;BME280;11362;48.102;11.620;2023-04-15T03:15:49;94090.97;;;21.60;30.99
22389;BME280;11362;48.102;11.620;2023-04-15T03:18:14;94094.94;;;21.59;31.23
22389;BME280;11362;48.102;11.620;2023-04-15T03:20:39;94096.50;;;21.60;30.98
22389;BME280;11362;48.102;11.620;2023-04-15T03:23:05;94095.75;;;21.59;31.08
22389;BME280;11362;48.102;11.620;2023-04-15T03:25:30;94099.25;;;21.60;30.93
22389;BME280;11362;48.102;11.620;2023-04-15T03:27:55;94094.94;;;21.59;30.98
22389;BME280;11362;48.102;11.620;2023-04-15T03:30:20;94106.00;;;21.59;31.01
22389;BME280;11362;48.102;11.620;2023-04-15T03:32:46;94100.47;;;21.59;31.02
22389;BME280;11362;48.102;11.620;2023-04-15T03:35:11;94106.00;;;21.59;30.85
22389;BME280;11362;48.102;11.620;2023-04-15T03:37:36;94099.72;;;21.58;31.06
22389;BME280;11362;48.102;11.620;2023-04-15T03:40:02;94099.72;;;21.58;31.07
22389;BME280;11362;48.102;11.620;2023-04-15T03:42:27;94092.19;;;21.59;30.86
22389;BME280;11362;48.102;11.620;2023-04-15T03:44:52;94096.16;;;21.58;30.92
22389;BME280;11362;48.102;11.620;2023-04-15T03:47:18;94101.69;;;21.58;30.85
22389;BME280;11362;48.102;11.620;2023-04-15T03:49:43;94102.03;;;21.60;31.00
22389;BME280;11362;48.102;11.620;2023-04-15T03:52:08;94104.03;;;21.59;31.05
22389;BME280;11362;48.102;11.620;2023-04-15T03:54:33;94096.59;;;21.56;31.21
22389;BME280;11362;48.102;11.620;2023-04-15T03:56:59;94102.91;;;21.57;30.93
22389;BME280;11362;48.102;11.620;2023-04-15T03:59:24;94101.34;;;21.56;30.96
22389;BME280;11362;48.102;11.620;2023-04-15T04:01:49;94104.88;;;21.56;30.95
22389;BME280;11362;48.102;11.620;2023-04-15T04:04:14;94104.44;;;21.58;30.88
22389;BME280;11362;48.102;11.620;2023-04-15T04:06:40;94115.50;;;21.58;31.07
22389;BME280;11362;48.102;11.620;2023-04-15T04:09:05;94111.53;;;21.59;31.17
22389;BME280;11362;48.102;11.620;2023-04-15T04:11:30;94108.44;;;21.57;31.01
22389;BME280;11362;48.102;11.620;2023-04-15T04:13:56;94107.22;;;21.58;30.95
22389;BME280;11362;48.102;11.620;2023-04-15T04:16:21;94106.88;;;21.56;31.05
22389;BME280;11362;48.102;11.620;2023-04-15T04:18:46;94103.66;;;21.57;31.10
22389;BME280;11362;48.102;11.620;2023-04-15T04:21:12;94108.44;;;21.57;31.00
22389;BME280;11362;48.102;11.620;2023-04-15T04:23:37;94107.63;;;21.56;30.92
22389;BME280;11362;48.102;11.620;2023-04-15T04:26:02;94113.16;;;21.56;30.94
22389;BME280;11362;48.102;11.620;2023-04-15T04:28:27;94109.19;;;21.57;30.79
22389;BME280;11362;48.102;11.620;2023-04-15T04:30:54;94109.19;;;21.57;30.86
22389;BME280;11362;48.102;11.620;2023-04-15T04:33:20;94102.91;;;21.57;30.95
22389;BME280;11362;48.102;11.620;2023-04-15T04:35:45;94114.72;;;21.57;31.04
22389;BME280;11362;48.102;11.620;2023-04-15T04:38:10;94112.41;;;21.56;31.03
22389;BME280;11362;48.102;11.620;2023-04-15T04:40:35;94109.19;;;21.57;31.10
22389;BME280;11362;48.102;11.620;2023-04-15T04:43:01;94109.66;;;21.56;31.05
22389;BME280;11362;48.102;11.620;2023-04-15T04:45:26;94110.41;;;21.56;30.99
22389;BME280;11362;48.102;11.620;2023-04-15T04:47:51;94110.84;;;21.55;30.96
22389;BME280;11362;48.102;11.620;2023-04-15T04:50:17;94117.94;;;21.56;30.97
22389;BME280;11362;48.102;11.620;2023-04-15T04:52:42;94113.16;;;21.56;30.85
22389;BME280;11362;48.102;11.620;2023-04-15T04:55:07;94118.69;;;21.56;30.91
22389;BME280;11362;48.102;11.620;2023-04-15T04:57:33;94116.72;;;21.57;30.80
22389;BME280;11362;48.102;11.620;2023-04-15T04:59:58;94117.94;;;21.56;30.97
22389;BME280;11362;48.102;11.620;2023-04-15T05:02:24;94111.63;;;21.55;30.97
22389;BME280;11362;48.102;11.620;2023-04-15T05:04:49;94115.59;;;21.54;30.75
22389;BME280;11362;48.102;11.620;2023-04-15T05:07:14;94112.81;;;21.54;30.78
22389;BME280;11362;48.102;11.620;2023-04-15T05:09:40;94110.06;;;21.54;30.79
22389;BME280;11362;48.102;11.620;2023-04-15T05:12:05;94110.06;;;21.54;30.91
22389;BME280;11362;48.102;11.620;2023-04-15T05:14:30;94110.06;;;21.54;30.92
22389;BME280;11362;48.102;11.620;2023-04-15T05:16:56;94107.31;;;21.54;31.05
22389;BME280;11362;48.102;11.620;2023-04-15T05:19:21;94107.63;;;21.56;30.87
22389;BME280;11362;48.102;11.620;2023-04-15T05:21:46;94115.16;;;21.56;30.90
22389;BME280;11362;48.102;11.620;2023-04-15T05:24:12;94102.91;;;21.57;30.91
22389;BME280;11362;48.102;11.620;2023-04-15T05:26:37;94105.31;;;21.55;30.85
22389;BME280;11362;48.102;11.620;2023-04-15T05:29:02;94111.19;;;21.57;30.85
22389;BME280;11362;48.102;11.620;2023-04-15T05:31:27;94110.41;;;21.56;30.75
22389;BME280;11362;48.102;11.620;2023-04-15T05:33:53;94102.13;;;21.56;30.83
22389;BME280;11362;48.102;11.620;2023-04-15T05:36:18;94101.34;;;21.56;31.00
22389;BME280;11362;48.102;11.620;2023-04-15T05:38:43;94110.84;;;21.55;30.80
22389;BME280;11362;48.102;11.620;2023-04-15T05:41:09;94111.63;;;21.55;30.86
22389;BME280;11362;48.102;11.620;2023-04-15T05:43:34;94104.13;;;21.56;30.84
22389;BME280;11362;48.102;11.620;2023-04-15T05:45:59;94111.63;;;21.55;31.03
22389;BME280;11362;48.102;11.620;2023-04-15T05:48:24;94110.41;;;21.56;30.95
22389;BME280;11362;48.102;11.620;2023-04-15T05:50:50;94120.69;;;21.56;30.63
22389;BME280;11362;48.102;11.620;2023-04-15T05:53:15;94111.63;;;21.55;30.86
22389;BME280;11362;48.102;11.620;2023-04-15T05:55:40;94117.16;;;21.55;31.13
22389;BME280;11362;48.102;11.620;2023-04-15T05:58:06;94121.91;;;21.55;30.83
22389;BME280;11362;48.102;11.620;2023-04-15T06:00:31;94110.41;;;21.56;30.80
22389;BME280;11362;48.102;11.620;2023-04-15T06:02:56;94121.91;;;21.55;30.88
22389;BME280;11362;48.102;11.620;2023-04-15T06:05:21;94123.47;;;21.56;30.81
22389;BME280;11362;48.102;11.620;2023-04-15T06:07:47;94115.16;;;21.56;30.76
22389;BME280;11362;48.102;11.620;2023-04-15T06:10:12;94112.41;;;21.56;30.66
22389;BME280;11362;48.102;11.620;2023-04-15T06:12:37;94126.22;;;21.56;30.78
22389;BME280;11362;48.102;11.620;2023-04-15T06:15:03;94119.91;;;21.55;30.78
22389;BME280;11362;48.102;11.620;2023-04-15T06:17:29;94123.47;;;21.56;30.61
22389;BME280;11362;48.102;11.620;2023-04-15T06:19:54;94120.69;;;21.56;30.89
22389;BME280;11362;48.102;11.620;2023-04-15T06:22:23;94117.94;;;21.56;30.80
22389;BME280;11362;48.102;11.620;2023-04-15T06:24:48;94119.47;;;21.57;30.63
22389;BME280;11362;48.102;11.620;2023-04-15T06:27:14;94116.38;;;21.55;30.67
22389;BME280;11362;48.102;11.620;2023-04-15T06:29:39;94120.31;;;21.54;30.96
22389;BME280;11362;48.102;11.620;2023-04-15T06:32:05;94116.38;;;21.55;30.76
22389;BME280;11362;48.102;11.620;2023-04-15T06:34:30;94117.56;;;21.54;30.65
22389;BME280;11362;48.102;11.620;2023-04-15T06:36:55;94112.41;;;21.56;30.83
22389;BME280;11362;48.102;11.620;2023-04-15T06:39:20;94111.63;;;21.55;30.85
22389;BME280;11362;48.102;11.620;2023-04-15T06:41:46;94126.63;;;21.54;30.80
22389;BME280;11362;48.102;11.620;2023-04-15T06:44:11;94121.91;;;21.55;30.68
22389;BME280;11362;48.102;11.620;2023-04-15T06:46:36;94123.47;;;21.56;30.79
22389;BME280;11362;48.102;11.620;2023-04-15T06:49:02;94119.91;;;21.55;30.51
22389;BME280;11362;48.102;11.620;2023-04-15T06:51:27;94123.47;;;21.56;30.52
22389;BME280;11362;48.102;11.620;2023-04-15T06:53:52;94122.66;;;21.55;30.71
22389;BME280;11362;48.102;11.620;2023-04-15T06:56:17;94124.22;;;21.56;30.78
22389;BME280;11362;48.102;11.620;2023-04-15T06:58:43;94127.44;;;21.55;30.66
22389;BME280;11362;48.102;11.620;2023-04-15T07:01:08;94128.97;;;21.56;30.59
22389;BME280;11362;48.102;11.620;2023-04-15T07:03:33;94127.78;;;21.57;30.65
22389;BME280;11362;48.102;11.620;2023-04-15T07:05:59;94126.22;;;21.56;30.52
22389;BME280;11362;48.102;11.620;2023-04-15T07:08:24;94125.00;;;21.57;30.57
22389;BME280;11362;48.102;11.620;2023-04-15T07:10:49;94128.97;;;21.56;30.59
22389;BME280;11362;48.102;11.620;2023-04-15T07:13:15;94135.72;;;21.55;30.74
22389;BME280;11362;48.102;11.620;2023-04-15T07:15:40;94126.22;;;21.56;30.64
22389;BME280;11362;48.102;11.620;2023-04-15T07:18:05;94126.97;;;21.56;30.55
22389;BME280;11362;48.102;11.620;2023-04-15T07:20:30;94126.97;;;21.56;30.36
22389;BME280;11362;48.102;11.620;2023-04-15T07:22:56;94120.69;;;21.56;30.68
22389;BME280;11362;48.102;11.620;2023-04-15T07:25:21;94127.78;;;21.57;30.56
22389;BME280;11362;48.102;11.620;2023-04-15T07:27:46;94131.28;;;21.57;30.29
22389;BME280;11362;48.102;11.620;2023-04-15T07:30:12;94128.97;;;21.56;30.69
22389;BME280;11362;48.102;11.620;2023-04-15T07:32:37;94134.84;;;21.58;30.41
22389;BME280;11362;48.102;11.620;2023-04-15T07:35:02;94127.78;;;21.57;30.53
22389;BME280;11362;48.102;11.620;2023-04-15T07:37:28;94136.41;;;21.59;30.51
22389;BME280;11362;48.102;11.620;2023-04-15T07:39:54;94137.63;;;21.58;30.48
22389;BME280;11362;48.102;11.620;2023-04-15T07:42:20;94150.22;;;21.59;30.55
22389;BME280;11362;48.102;11.620;2023-04-15T07:44:45;94141.59;;;21.57;30.61
22389;BME280;11362;48.102;11.620;2023-04-15T07:47:10;94139.16;;;21.59;30.48
22389;BME280;11362;48.102;11.620;2023-04-15T07:49:35;94149.44;;;21.58;30.36
22389;BME280;11362;48.102;11.620;2023-04-15T07:52:01;94139.16;;;21.59;30.56
22389;BME280;11362;48.102;11.620;2023-04-15T07:54:26;94140.38;;;21.58;30.50
22389;BME280;11362;48.102;11.620;2023-04-15T07:56:51;94139.16;;;21.59;30.50
22389;BME280;11362;48.102;11.620;2023-04-15T07:59:16;94140.38;;;21.58;30.55
22389;BME280;11362;48.102;11.620;2023-04-15T08:01:42;94134.84;;;21.58;30.38
22389;BME280;11362;48.102;11.620;2023-04-15T08:04:07;94139.16;;;21.59;30.66
22389;BME280;11362;48.102;11.620;2023-04-15T08:06:33;94137.94;;;21.60;30.45
22389;BME280;11362;48.102;11.620;2023-04-15T08:08:58;94130.44;;;21.60;30.34
22389;BME280;11362;48.102;11.620;2023-04-15T08:11:23;94128.09;;;21.59;30.48
22389;BME280;11362;48.102;11.620;2023-04-15T08:13:48;94132.41;;;21.60;30.42
22389;BME280;11362;48.102;11.620;2023-04-15T08:16:19;94124.94;;;21.60;30.66
22389;BME280;11362;48.102;11.620;2023-04-15T08:18:46;94129.66;;;21.60;30.46
22389;BME280;11362;48.102;11.620;2023-04-15T08:21:12;94127.69;;;21.60;30.69
22389;BME280;11362;48.102;11.620;2023-04-15T08:23:38;94127.69;;;21.60;30.56
22389;BME280;11362;48.102;11.620;2023-04-15T08:26:03;94135.19;;;21.60;30.55
22389;BME280;11362;48.102;11.620;2023-04-15T08:28:28;94135.19;;;21.60;30.52
22389;BME280;11362;48.102;11.620;2023-04-15T08:30:54;94131.66;;;21.59;30.62
22389;BME280;11362;48.102;11.620;2023-04-15T08:33:19;94132.00;;;21.61;30.28
22389;BME280;11362;48.102;11.620;2023-04-15T08:35:45;94136.75;;;21.61;30.45
22389;BME280;11362;48.102;11.620;2023-04-15T08:38:10;94128.44;;;21.61;30.50
22389;BME280;11362;48.102;11.620;2023-04-15T08:40:41;94139.16;;;21.59;30.55
22389;BME280;11362;48.102;11.620;2023-04-15T08:43:08;94136.41;;;21.59;30.50
22389;BME280;11362;48.102;11.620;2023-04-15T08:45:37;94132.41;;;21.60;30.72
22389;BME280;11362;48.102;11.620;2023-04-15T08:48:04;94136.41;;;21.59;30.40
22389;BME280;11362;48.102;11.620;2023-04-15T08:50:30;94128.09;;;21.59;30.56
22389;BME280;11362;48.102;11.620;2023-04-15T08:52:58;94131.66;;;21.59;30.50
22389;BME280;11362;48.102;11.620;2023-04-15T08:55:26;94139.94;;;21.59;30.54
22389;BME280;11362;48.102;11.620;2023-04-15T08:57:53;94132.88;;;21.58;30.76
22389;BME280;11362;48.102;11.620;2023-04-15T09:00:18;94142.72;;;21.59;30.51
22389;BME280;11362;48.102;11.620;2023-04-15T09:02:44;94147.44;;;21.59;30.40
22389;BME280;11362;48.102;11.620;2023-04-15T09:05:09;94143.13;;;21.58;30.35
22389;BME280;11362;48.102;11.620;2023-04-15T09:07:34;94136.41;;;21.59;30.60
22389;BME280;11362;48.102;11.620;2023-04-15T09:10:00;94143.13;;;21.58;30.41
22389;BME280;11362;48.102;11.620;2023-04-15T09:12:25;94147.44;;;21.59;30.60
22389;BME280;11362;48.102;11.620;2023-04-15T09:14:50;94151.75;;;21.60;30.57
22389;BME280;11362;48.102;11.620;2023-04-15T09:17:19;94158.09;;;21.60;30.62
22389;BME280;11362;48.102;11.620;2023-04-15T09:19:44;94151.75;;;21.60;30.58
22389;BME280;11362;48.102;11.620;2023-04-15T09:22:10;94154.97;;;21.58;30.42
22389;BME280;11362;48.102;11.620;2023-04-15T09:24:39;94154.19;;;21.58;30.48
22389;BME280;11362;48.102;11.620;2023-04-15T09:27:04;94162.81;;;21.60;30.41
22389;BME280;11362;48.102;11.620;2023-04-15T09:29:30;94156.53;;;21.59;30.26
22389;BME280;11362;48.102;11.620;2023-04-15T09:31:55;94163.59;;;21.60;30.44
22389;BME280;11362;48.102;11.620;2023-04-15T09:34:34;94167.59;;;21.59;30.32
22389;BME280;11362;48.102;11.620;2023-04-15T09:36:59;94173.88;;;21.60;30.55
22389;BME280;11362;48.102;11.620;2023-04-15T09:39:24;94173.88;;;21.60;30.43
22389;BME280;11362;48.102;11.620;2023-04-15T09:42:06;94171.09;;;21.60;30.45
22389;BME280;11362;48.102;11.620;2023-04-15T09:44:31;94176.63;;;21.60;30.41
22389;BME280;11362;48.102;11.620;2023-04-15T09:46:57;94166.78;;;21.59;30.15
22389;BME280;11362;48.102;11.620;2023-04-15T09:49:22;94163.28;;;21.58;30.40
22389;BME280;11362;48.102;11.620;2023-04-15T09:51:47;94168.34;;;21.60;30.40
22389;BME280;11362;48.102;11.620;2023-04-15T09:54:18;94168.34;;;21.60;30.31
22389;BME280;11362;48.102;11.620;2023-04-15T09:56:44;94173.88;;;21.60;30.33
22389;BME280;11362;48.102;11.620;2023-04-15T09:59:09;94173.88;;;21.60;30.57
22389;BME280;11362;48.102;11.620;2023-04-15T10:01:35;94172.31;;;21.59;30.33
22389;BME280;11362;48.102;11.620;2023-04-15T10:04:03;94172.31;;;21.59;30.33
22389;BME280;11362;48.102;11.620;2023-04-15T10:06:29;94169.97;;;21.57;30.44
22389;BME280;11362;48.102;11.620;2023-04-15T10:08:56;94173.53;;;21.58;30.24
22389;BME280;11362;48.102;11.620;2023-04-15T10:11:23;94173.53;;;21.58;30.46
22389;BME280;11362;48.102;11.620;2023-04-15T10:13:49;94173.53;;;21.58;30.55
22389;BME280;11362;48.102;11.620;2023-04-15T10:16:18;94169.97;;;21.57;30.40
22389;BME280;11362;48.102;11.620;2023-04-15T10:18:46;94176.28;;;21.58;30.35
22389;BME280;11362;48.102;11.620;2023-04-15T10:21:12;94173.53;;;21.58;30.38
22389;BME280;11362;48.102;11.620;2023-04-15T10:23:38;94165.25;;;21.58;30.46
22389;BME280;11362;48.102;11.620;2023-04-15T10:26:04;94177.09;;;21.58;30.29
22389;BME280;11362;48.102;11.620;2023-04-15T10:28:29;94172.31;;;21.59;30.05
22389;BME280;11362;48.102;11.620;2023-04-15T10:30:56;94169.97;;;21.57;30.45
22389;BME280;11362;48.102;11.620;2023-04-15T10:33:23;94176.28;;;21.58;30.53
22389;BME280;11362;48.102;11.620;2023-04-15T10:35:50;94176.63;;;21.60;30.45
22389;BME280;11362;48.102;11.620;2023-04-15T10:38:34;94184.16;;;21.59;30.46
22389;BME280;11362;48.102;11.620;2023-04-15T10:41:11;94189.69;;;21.59;30.53
22389;BME280;11362;48.102;11.620;2023-04-15T10:43:37;94195.22;;;21.59;30.38
22389;BME280;11362;48.102;11.620;2023-04-15T10:46:04;94188.91;;;21.59;30.42
22389;BME280;11362;48.102;11.620;2023-04-15T10:48:30;94188.91;;;21.59;30.27
22389;BME280;11362;48.102;11.620;2023-04-15T10:50:56;94191.25;;;21.60;30.36
22389;BME280;11362;48.102;11.620;2023-04-15T10:53:28;94197.97;;;21.59;30.47
22389;BME280;11362;48.102;11.620;2023-04-15T10:55:54;94192.88;;;21.58;30.11
22389;BME280;11362;48.102;11.620;2023-04-15T10:58:22;94192.88;;;21.58;30.37
22389;BME280;11362;48.102;11.620;2023-04-15T11:00:50;94195.22;;;21.59;30.33
22389;BME280;11362;48.102;11.620;2023-04-15T11:03:15;94191.66;;;21.59;30.55
22389;BME280;11362;48.102;11.620;2023-04-15T11:08:06;94204.25;;;21.60;30.57
22389;BME280;11362;48.102;11.620;2023-04-15T11:17:54;94195.22;;;21.59;30.55
22389;BME280;11362;48.102;11.620;2023-04-15T11:20:19;94193.66;;;21.58;30.30
22389;BME280;11362;48.102;11.620;2023-04-15T11:22:49;94193.66;;;21.58;30.39
22389;BME280;11362;48.102;11.620;2023-04-15T11:25:22;94190.09;;;21.58;30.46
22389;BME280;11362;48.102;11.620;2023-04-15T11:27:48;94199.94;;;21.59;30.23
22389;BME280;11362;48.102;11.620;2023-04-15T11:30:24;94196.44;;;21.58;30.01
22389;BME280;11362;48.102;11.620;2023-04-15T11:32:51;94198.41;;;21.58;30.40
22389;BME280;11362;48.102;11.620;2023-04-15T11:35:17;94197.59;;;21.57;30.39
22389;BME280;11362;48.102;11.620;2023-04-15T11:37:46;94199.59;;;21.57;30.50
22389;BME280;11362;48.102;11.620;2023-04-15T11:40:12;94202.38;;;21.57;30.32
22389;BME280;11362;48.102;11.620;2023-04-15T11:42:37;94211.88;;;21.56;30.36
22389;BME280;11362;48.102;11.620;2023-04-15T11:45:11;94220.91;;;21.56;30.37
22389;BME280;11362;48.102;11.620;2023-04-15T11:47:38;94200.03;;;21.55;30.25
22389;BME280;11362;48.102;11.620;2023-04-15T11:50:16;94201.59;;;21.56;30.20
22389;BME280;11362;48.102;11.620;2023-04-15T11:55:19;94223.69;;;21.56;30.50
22389;BME280;11362;48.102;11.620;2023-04-15T11:57:44;94218.16;;;21.56;30.33
22389;BME280;11362;48.102;11.620;2023-04-15T12:00:10;94220.91;;;21.56;30.40
22389;BME280;11362;48.102;11.620;2023-04-15T12:02:36;94215.06;;;21.54;30.52
22389;BME280;11362;48.102;11.620;2023-04-15T12:05:05;94225.22;;;21.57;30.35
22389;BME280;11362;48.102;11.620;2023-04-15T12:07:30;94222.91;;;21.56;30.35
22389;BME280;11362;48.102;11.620;2023-04-15T12:09:56;94220.91;;;21.56;30.37
22389;BME280;11362;48.102;11.620;2023-04-15T12:12:26;94224.91;;;21.55;30.20
22389;BME280;11362;48.102;11.620;2023-04-15T12:14:51;94227.66;;;21.55;30.36
22389;BME280;11362;48.102;11.620;2023-04-15T12:17:17;94231.97;;;21.56;30.40
22389;BME280;11362;48.102;11.620;2023-04-15T12:19:42;94229.22;;;21.56;30.70
22389;BME280;11362;48.102;11.620;2023-04-15T12:22:09;94229.22;;;21.56;30.56
22389;BME280;11362;48.102;11.620;2023-04-15T12:24:36;94233.97;;;21.56;30.44
22389;BME280;11362;48.102;11.620;2023-04-15T12:27:06;94245.03;;;21.56;30.35
22389;BME280;11362;48.102;11.620;2023-04-15T12:29:33;94238.28;;;21.57;30.46
22389;BME280;11362;48.102;11.620;2023-04-15T12:34:37;94246.56;;;21.57;30.43
22389;BME280;11362;48.102;11.620;2023-04-15T12:37:06;94241.06;;;21.57;30.25
22389;BME280;11362;48.102;11.620;2023-04-15T12:39:35;94239.50;;;21.56;30.41
22389;BME280;11362;48.102;11.620;2023-04-15T12:42:02;94245.78;;;21.56;30.41
22389;BME280;11362;48.102;11.620;2023-04-15T12:44:27;94245.03;;;21.56;30.35
22389;BME280;11362;48.102;11.620;2023-04-15T12:46:53;94254.06;;;21.56;30.34
22389;BME280;11362;48.102;11.620;2023-04-15T12:49:20;94245.78;;;21.56;30.36
22389;BME280;11362;48.102;11.620;2023-04-15T12:51:48;94254.88;;;21.57;30.26
22389;BME280;11362;48.102;11.620;2023-04-15T12:54:13;94260.41;;;21.57;30.58
22389;BME280;11362;48.102;11.620;2023-04-15T12:56:38;94272.22;;;21.57;30.40
22389;BME280;11362;48.102;11.620;2023-04-15T12:59:04;94267.13;;;21.56;30.29